createdAt,value
2023-03-10T00:00:32.522Z,3.17
2023-03-10T00:05:34.863Z,2.30
2023-03-10T00:10:38.265Z,2.60
2023-03-10T00:15:40.416Z,2.05
2023-03-10T00:20:42.519Z,1.70
2023-03-10T00:25:44.934Z,1.65
2023-03-10T00:31:08.030Z,1.92
2023-03-10T00:36:15.425Z,1.90
2023-03-10T00:41:20.748Z,2.60
2023-03-10T00:46:25.468Z,2.50
2023-03-10T00:51:27.806Z,1.83
2023-03-10T00:56:30.609Z,2.40
2023-03-10T01:01:41.520Z,1.70
2023-03-10T01:06:44.624Z,2.00
2023-03-10T01:11:46.898Z,2.20
2023-03-10T01:16:49.137Z,2.60
2023-03-10T01:21:51.435Z,2.53
2023-03-10T01:26:53.559Z,2.50
2023-03-10T01:31:55.769Z,1.42
2023-03-10T01:36:58.547Z,1.80
2023-03-10T01:42:01.078Z,2.58
2023-03-10T01:47:03.434Z,3.35
2023-03-10T01:52:13.128Z,3.88
2023-03-10T01:57:18.736Z,3.72
2023-03-10T02:02:21.596Z,3.35
2023-03-10T02:07:29.088Z,3.33
2023-03-10T02:12:31.249Z,3.38
2023-03-10T02:17:35.123Z,3.38
2023-03-10T02:22:39.312Z,4.10
2023-03-10T02:32:50.152Z,3.45
2023-03-10T02:37:52.499Z,3.78
2023-03-10T02:42:55.621Z,3.92
2023-03-10T02:47:57.911Z,3.60
2023-03-10T02:53:07.509Z,3.00
2023-03-10T02:58:10.784Z,3.60
2023-03-10T03:03:16.824Z,4.63
2023-03-10T03:08:21.149Z,4.35
2023-03-10T03:13:23.405Z,3.13
2023-03-10T03:18:25.915Z,3.30
2023-03-10T03:23:28.153Z,3.10
2023-03-10T03:28:30.493Z,3.90
2023-03-10T03:33:32.694Z,3.97
2023-03-10T03:38:34.984Z,3.00
2023-03-10T03:43:37.852Z,3.08
2023-03-10T03:48:40.818Z,5.07
2023-03-10T03:53:44.626Z,4.13
2023-03-10T03:58:47.738Z,4.70
2023-03-10T04:03:51.300Z,3.78
2023-03-10T04:08:53.940Z,3.75
2023-03-10T04:13:58.653Z,4.55
2023-03-10T04:19:01.923Z,4.00
2023-03-10T04:24:04.444Z,4.68
2023-03-10T04:29:08.019Z,3.58
2023-03-10T04:34:12.204Z,3.40
2023-03-10T04:39:15.361Z,3.47
2023-03-10T04:44:30.522Z,3.35
2023-03-10T04:49:36.454Z,3.28
2023-03-10T04:54:39.242Z,4.10
2023-03-10T04:59:41.463Z,3.78
2023-03-10T05:04:43.806Z,4.00
2023-03-10T05:09:46.758Z,3.20
2023-03-10T05:14:49.547Z,3.03
2023-03-10T05:19:51.936Z,3.13
2023-03-10T05:24:54.122Z,2.83
2023-03-10T05:29:57.293Z,2.58
2023-03-10T05:35:02.332Z,3.17
2023-03-10T05:40:14.922Z,2.97
2023-03-10T05:45:18.256Z,3.08
2023-03-10T05:50:20.582Z,3.08
2023-03-10T05:55:24.054Z,2.75
2023-03-10T06:00:27.053Z,2.95
2023-03-10T06:05:34.894Z,3.22
2023-03-10T06:10:37.090Z,2.95
2023-03-10T06:15:39.174Z,2.58
2023-03-10T06:20:41.356Z,2.70
2023-03-10T06:25:43.878Z,2.83
2023-03-10T06:30:45.959Z,3.05
2023-03-10T06:35:48.163Z,2.88
2023-03-10T06:40:50.828Z,3.70
2023-03-10T06:45:53.285Z,3.05
2023-03-10T06:50:55.525Z,2.53
2023-03-10T06:56:02.907Z,2.40
2023-03-10T07:01:06.158Z,2.75
2023-03-10T07:06:08.368Z,2.45
2023-03-10T07:11:10.948Z,3.10
2023-03-10T07:16:13.083Z,2.40
2023-03-10T07:21:17.738Z,2.42
2023-03-10T07:26:19.856Z,3.00
2023-03-10T07:31:22.019Z,2.88
2023-03-10T07:36:24.309Z,2.63
2023-03-10T07:41:26.592Z,2.28
2023-03-10T07:46:29.091Z,2.83
2023-03-10T07:51:32.196Z,2.20
2023-03-10T07:56:34.404Z,2.45
2023-03-10T08:01:37.011Z,2.80
2023-03-10T08:06:39.272Z,2.97
2023-03-10T08:11:41.367Z,2.75
2023-03-10T08:16:43.484Z,2.28
2023-03-10T08:21:45.656Z,2.15
2023-03-10T08:26:47.825Z,2.17
2023-03-10T08:31:50.090Z,2.03
2023-03-10T08:36:52.225Z,1.98
2023-03-10T08:41:55.335Z,1.92
2023-03-10T08:46:57.626Z,2.15
2023-03-10T08:52:00.456Z,2.10
2023-03-10T08:57:02.623Z,1.63
2023-03-10T09:02:04.882Z,1.50
2023-03-10T09:07:07.004Z,1.38
2023-03-10T09:12:10.638Z,1.45
2023-03-10T09:17:12.714Z,2.10
2023-03-10T09:22:16.024Z,1.63
2023-03-10T09:27:18.103Z,2.55
2023-03-10T09:32:20.338Z,2.03
2023-03-10T09:37:22.565Z,1.50
2023-03-10T09:42:47.585Z,2.33
2023-03-10T09:48:16.696Z,1.63
2023-03-10T09:53:49.475Z,1.85
2023-03-10T09:59:02.637Z,0.90
2023-03-10T10:04:35.395Z,1.50
2023-03-10T10:09:49.244Z,1.60
2023-03-10T10:15:13.306Z,1.67
2023-03-10T10:20:30.645Z,1.80
2023-03-10T10:25:32.774Z,2.33
2023-03-10T10:30:38.044Z,1.40
2023-03-10T10:35:46.539Z,1.50
2023-03-10T10:40:51.965Z,1.75
2023-03-10T10:46:04.456Z,1.45
2023-03-10T10:51:29.313Z,1.60
2023-03-10T10:56:31.893Z,1.45
2023-03-10T11:02:32.459Z,1.73
2023-03-10T11:07:34.637Z,1.42
2023-03-10T11:12:56.226Z,1.45
2023-03-10T11:18:14.605Z,1.50
2023-03-10T11:23:37.227Z,1.98
2023-03-10T11:28:42.817Z,1.30
2023-03-10T11:34:22.388Z,1.27
2023-03-10T11:39:30.964Z,1.10
2023-03-10T11:44:47.037Z,1.17
2023-03-10T11:49:57.763Z,1.77
2023-03-10T11:55:12.195Z,1.30
2023-03-10T12:00:32.350Z,1.65
2023-03-10T12:05:56.159Z,1.48
2023-03-10T12:11:01.598Z,1.20
2023-03-10T12:16:04.889Z,1.20
2023-03-10T12:21:33.150Z,0.85
2023-03-10T12:26:38.272Z,1.40
2023-03-10T12:31:40.350Z,1.60
2023-03-10T12:36:45.510Z,1.67
2023-03-10T12:41:50.112Z,1.27
2023-03-10T12:47:08.371Z,0.98
2023-03-10T12:52:29.324Z,0.95
2023-03-10T12:57:56.398Z,1.30
2023-03-10T13:03:16.984Z,1.30
2023-03-10T13:08:24.453Z,1.35
2023-03-10T13:13:36.060Z,1.35
2023-03-10T13:18:38.245Z,1.55
2023-03-10T13:23:43.621Z,1.05
2023-03-10T13:28:55.074Z,0.82
2023-03-10T13:33:58.066Z,1.13
2023-03-10T13:39:03.603Z,1.00
2023-03-10T13:44:06.020Z,1.08
2023-03-10T13:49:08.659Z,0.98
2023-03-10T13:54:27.249Z,1.20
2023-03-10T13:59:31.599Z,0.90
2023-03-10T14:04:48.965Z,0.77
2023-03-10T14:10:06.178Z,1.00
2023-03-10T14:15:14.160Z,0.88
2023-03-10T14:20:31.436Z,0.63
2023-03-10T14:25:33.534Z,0.82
2023-03-10T14:30:35.811Z,0.70
2023-03-10T14:35:38.232Z,1.50
2023-03-10T14:40:44.335Z,1.63
2023-03-10T14:45:48.607Z,1.75
2023-03-10T14:50:50.950Z,1.00
2023-03-10T14:55:58.024Z,0.82
2023-03-10T15:01:00.692Z,0.80
2023-03-10T15:06:02.829Z,0.90
2023-03-10T15:11:05.114Z,0.80
2023-03-10T15:16:10.461Z,0.90
2023-03-10T15:21:14.001Z,1.52
2023-03-10T15:26:16.210Z,1.20
2023-03-10T15:31:18.418Z,0.95
2023-03-10T15:36:20.595Z,1.23
2023-03-10T15:41:23.778Z,0.90
2023-03-10T15:46:26.212Z,1.55
2023-03-10T15:51:28.443Z,1.67
2023-03-10T15:56:30.783Z,1.50
2023-03-10T16:01:33.215Z,1.75
2023-03-10T16:06:35.318Z,1.60
2023-03-10T16:11:37.379Z,2.08
2023-03-10T16:16:39.800Z,1.92
2023-03-10T16:21:41.960Z,2.08
2023-03-10T16:26:44.918Z,2.17
2023-03-10T16:31:47.214Z,1.60
2023-03-10T16:36:50.714Z,1.17
2023-03-10T16:41:52.878Z,1.38
2023-03-10T16:46:55.224Z,1.83
2023-03-10T16:51:57.328Z,2.42
2023-03-10T16:57:01.556Z,2.70
2023-03-10T17:02:04.936Z,2.15
2023-03-10T17:07:07.050Z,4.22
2023-03-10T17:12:09.718Z,3.00
2023-03-10T17:17:11.911Z,2.15
2023-03-10T17:22:14.033Z,2.08
2023-03-10T17:27:16.140Z,1.50
2023-03-10T17:32:18.367Z,2.88
2023-03-10T17:37:21.372Z,3.08
2023-03-10T17:42:25.253Z,3.55
2023-03-10T17:47:27.475Z,1.95
2023-03-10T17:52:29.710Z,2.03
2023-03-10T17:57:31.800Z,2.33
2023-03-10T18:02:33.944Z,2.70
2023-03-10T18:07:36.074Z,2.70
2023-03-10T18:12:38.218Z,2.03
2023-03-10T18:17:40.320Z,3.53
2023-03-10T18:22:42.430Z,2.22
2023-03-10T18:27:44.550Z,2.55
2023-03-10T18:32:46.832Z,2.60
2023-03-10T18:37:49.034Z,2.10
2023-03-10T18:42:51.165Z,3.30
2023-03-10T18:47:53.365Z,2.85
2023-03-10T18:52:55.501Z,3.20
2023-03-10T18:57:57.569Z,2.40
2023-03-10T19:02:59.718Z,2.60
2023-03-10T19:08:01.800Z,2.08
2023-03-10T19:13:04.147Z,1.88
2023-03-10T19:18:06.326Z,2.03
2023-03-10T19:23:08.516Z,1.90
2023-03-10T19:28:10.621Z,1.65
2023-03-10T19:33:12.744Z,2.13
2023-03-10T19:38:14.856Z,2.00
2023-03-10T19:43:16.969Z,2.00
2023-03-10T19:48:19.216Z,1.50
2023-03-10T19:53:22.542Z,1.30
2023-03-10T19:58:25.817Z,1.42
2023-03-10T20:03:30.627Z,1.60
2023-03-10T20:08:34.111Z,1.93
2023-03-10T20:13:36.292Z,1.40
2023-03-10T20:18:38.870Z,1.65
2023-03-10T20:23:40.942Z,1.58
2023-03-10T20:28:43.582Z,1.65
2023-03-10T20:33:45.863Z,2.40
2023-03-10T20:38:48.273Z,2.22
2023-03-10T20:43:50.412Z,1.63
2023-03-10T20:48:52.695Z,1.60
2023-03-10T20:53:56.909Z,1.88
2023-03-10T20:59:01.947Z,1.95
2023-03-10T21:04:04.329Z,2.20
2023-03-10T21:09:06.489Z,2.00
2023-03-10T21:14:08.756Z,2.03
2023-03-10T21:19:11.116Z,2.35
2023-03-10T21:24:13.241Z,2.42
2023-03-10T21:29:15.347Z,2.75
2023-03-10T21:34:17.503Z,2.10
2023-03-10T21:39:19.973Z,1.75
2023-03-10T21:44:22.080Z,1.58
2023-03-10T21:49:24.344Z,1.45
2023-03-10T21:54:26.507Z,1.90
2023-03-10T21:59:28.683Z,2.10
2023-03-10T22:04:30.898Z,2.30
2023-03-10T22:09:33.067Z,2.20
2023-03-10T22:14:35.305Z,1.60
2023-03-10T22:19:37.466Z,1.77
2023-03-10T22:24:41.166Z,1.50
2023-03-10T22:29:43.284Z,1.60
2023-03-10T22:34:46.973Z,1.40
2023-03-10T22:39:49.158Z,1.80
2023-03-10T22:44:51.473Z,1.20
2023-03-10T22:49:54.068Z,1.45
2023-03-10T22:54:56.112Z,1.25
2023-03-10T22:59:58.220Z,1.20
2023-03-10T23:05:00.350Z,1.50
2023-03-10T23:10:06.362Z,1.70
2023-03-10T23:15:15.322Z,3.03
2023-03-10T23:20:27.550Z,2.20
2023-03-10T23:25:36.208Z,2.10
2023-03-10T23:30:41.074Z,1.63
2023-03-10T23:35:43.463Z,1.48
2023-03-10T23:40:45.616Z,1.63
2023-03-10T23:45:47.872Z,1.13
2023-03-10T23:50:50.354Z,1.27
2023-03-10T23:55:52.558Z,1.27
